Time;durP1;ratioP1;P1;durP2;ratioP2;P2;SDS_P1;SDS_P2;PMS_P1;PMS_P2;Temp;Humidity;BMP_temperature;BMP_pressure;BME280_temperature;BME280_humidity;BME280_pressure;Samples;Min_cycle;Max_cycle;Signal;HPM_P1;HPM_P2
2021/11/16 00:00:11;;;;;;;1.87;1.70;;;7.90;98.00;;;;;;5094790;28;20508;-72
2021/11/16 00:02:38;;;;;;;1.30;1.30;;;7.90;98.00;;;;;;5094770;28;20465;-72
2021/11/16 00:05:07;;;;;;;2.17;1.43;;;7.80;98.00;;;;;;5094624;28;20484;-72
2021/11/16 00:07:34;;;;;;;1.60;1.50;;;7.80;98.00;;;;;;5094695;28;20518;-72
2021/11/16 00:10:03;;;;;;;5.00;2.10;;;7.90;98.00;;;;;;5094732;28;20930;-72
2021/11/16 00:12:30;;;;;;;1.87;1.60;;;7.80;98.00;;;;;;5094543;28;20460;-71
2021/11/16 00:14:57;;;;;;;2.67;2.23;;;7.90;98.00;;;;;;5094656;28;20945;-71
2021/11/16 00:17:24;;;;;;;1.57;1.20;;;7.90;98.00;;;;;;5094736;28;20480;-71
2021/11/16 00:19:51;;;;;;;1.47;1.47;;;8.00;98.00;;;;;;5094333;28;20489;-71
2021/11/16 00:22:19;;;;;;;2.47;1.57;;;8.00;98.00;;;;;;5094616;28;21248;-72
2021/11/16 00:25:00;;;;;;;2.80;1.73;;;8.00;98.00;;;;;;5094015;28;20513;-72
2021/11/16 00:27:28;;;;;;;4.23;2.20;;;8.00;98.00;;;;;;5093894;28;20455;-72
2021/11/16 00:29:55;;;;;;;1.43;1.40;;;8.00;98.00;;;;;;5093467;28;20498;-72
2021/11/16 00:32:22;;;;;;;1.27;1.20;;;7.90;98.00;;;;;;5093427;28;20515;-72
2021/11/16 00:34:50;;;;;;;3.53;2.40;;;7.80;98.00;;;;;;5093418;28;20516;-71
2021/11/16 00:37:25;;;;;;;2.80;1.23;;;7.80;98.00;;;;;;5094173;28;20881;-71
2021/11/16 00:39:52;;;;;;;3.73;1.77;;;7.90;98.00;;;;;;5093479;28;20475;-72
2021/11/16 00:42:19;;;;;;;1.53;1.37;;;8.00;98.00;;;;;;5093839;28;20462;-72
2021/11/16 00:44:47;;;;;;;1.93;1.60;;;8.10;98.00;;;;;;5093781;28;21004;-71
2021/11/16 00:47:15;;;;;;;2.10;1.50;;;8.30;98.00;;;;;;5093878;28;20455;-71
2021/11/16 00:49:42;;;;;;;2.30;2.10;;;8.40;98.00;;;;;;5093286;28;20463;-71
2021/11/16 00:52:09;;;;;;;2.67;1.43;;;8.40;98.00;;;;;;5093791;28;20542;-71
2021/11/16 00:54:36;;;;;;;1.40;1.27;;;8.30;98.00;;;;;;5093747;28;20812;-71
2021/11/16 00:57:04;;;;;;;1.47;1.40;;;8.10;98.00;;;;;;5092791;28;20918;-71
2021/11/16 00:59:31;;;;;;;1.20;1.10;;;8.10;98.00;;;;;;5093589;28;20452;-71
2021/11/16 01:02:00;;;;;;;1.30;1.30;;;8.10;98.00;;;;;;5093555;28;20458;-72
2021/11/16 01:04:28;;;;;;;1.50;1.40;;;8.20;98.00;;;;;;5093514;28;20452;-71
2021/11/16 01:06:56;;;;;;;2.33;1.67;;;8.30;98.00;;;;;;5093392;28;20465;-71
2021/11/16 01:09:25;;;;;;;1.60;1.60;;;8.30;98.00;;;;;;5093370;28;20474;-71
2021/11/16 01:11:52;;;;;;;2.20;1.90;;;8.30;98.00;;;;;;5093295;28;20509;-71
2021/11/16 01:14:20;;;;;;;3.57;2.17;;;8.30;98.00;;;;;;5093191;28;20518;-72
2021/11/16 01:16:48;;;;;;;3.60;2.03;;;8.20;98.00;;;;;;5092892;28;20486;-71
2021/11/16 01:19:17;;;;;;;1.30;1.10;;;8.20;98.00;;;;;;5093337;28;20453;-71
2021/11/16 01:21:44;;;;;;;2.23;1.37;;;8.30;98.00;;;;;;5093290;28;20828;-71
2021/11/16 01:24:11;;;;;;;1.97;1.27;;;8.20;98.00;;;;;;5093328;28;20460;-71
2021/11/16 01:26:38;;;;;;;1.40;1.20;;;8.10;98.00;;;;;;5093319;28;20535;-71
2021/11/16 01:29:05;;;;;;;2.07;1.73;;;8.10;98.00;;;;;;5093145;28;20536;-71
2021/11/16 01:31:33;;;;;;;2.27;1.90;;;8.20;98.00;;;;;;5093503;28;20454;-71
2021/11/16 01:34:02;;;;;;;1.70;1.57;;;8.20;98.00;;;;;;5093099;28;20535;-71
2021/11/16 01:36:30;;;;;;;3.03;2.03;;;8.30;98.00;;;;;;5092880;28;20493;-72
2021/11/16 01:38:59;;;;;;;2.07;1.57;;;8.30;98.00;;;;;;5092876;28;20563;-72
2021/11/16 01:41:27;;;;;;;1.93;1.17;;;8.30;98.00;;;;;;5092695;28;20467;-71
2021/11/16 01:43:54;;;;;;;3.30;2.37;;;8.30;98.00;;;;;;5092785;28;20812;-71
2021/11/16 01:46:22;;;;;;;1.47;1.40;;;8.30;98.00;;;;;;5092782;28;20487;-71
2021/11/16 01:48:52;;;;;;;1.77;1.60;;;8.30;98.00;;;;;;5092296;28;20457;-71
2021/11/16 01:51:21;;;;;;;2.67;1.97;;;8.40;98.00;;;;;;5092741;28;20870;-71
2021/11/16 01:53:51;;;;;;;2.90;2.07;;;8.60;98.00;;;;;;5092516;28;20484;-71
2021/11/16 01:56:18;;;;;;;1.70;1.60;;;8.70;98.00;;;;;;5092269;28;20504;-71
2021/11/16 01:58:45;;;;;;;2.27;2.10;;;8.60;98.00;;;;;;5092300;28;20757;-71
2021/11/16 02:01:12;;;;;;;1.30;1.20;;;8.60;98.00;;;;;;5091206;28;21022;-71
2021/11/16 02:03:40;;;;;;;1.40;1.20;;;8.70;98.00;;;;;;5092463;28;20454;-71
2021/11/16 02:06:20;;;;;;;2.03;1.47;;;8.50;98.00;;;;;;5091065;28;20470;-71
2021/11/16 02:08:49;;;;;;;1.97;1.27;;;8.40;98.00;;;;;;5090061;28;20465;-71
2021/11/16 02:11:17;;;;;;;2.70;1.77;;;8.40;98.00;;;;;;5092279;28;20512;-71
2021/11/16 02:13:44;;;;;;;2.70;1.67;;;8.30;98.00;;;;;;5090920;28;20463;-71
2021/11/16 02:16:13;;;;;;;1.63;1.50;;;8.30;98.00;;;;;;5091930;28;20462;-71
2021/11/16 02:18:41;;;;;;;1.40;1.20;;;8.30;98.00;;;;;;5092102;28;20864;-71
2021/11/16 02:21:10;;;;;;;2.17;1.30;;;8.30;98.00;;;;;;5092066;28;20947;-71
2021/11/16 02:23:39;;;;;;;1.30;1.20;;;8.30;98.00;;;;;;5092209;28;20947;-71
2021/11/16 02:26:07;;;;;;;4.70;1.90;;;8.40;98.00;;;;;;5091983;28;20545;-71
2021/11/16 02:28:35;;;;;;;1.33;1.20;;;8.40;98.00;;;;;;5092201;28;20516;-71
2021/11/16 02:31:02;;;;;;;3.13;1.97;;;8.30;98.00;;;;;;5092044;28;20463;-71
2021/11/16 02:33:30;;;;;;;1.60;1.53;;;8.30;98.00;;;;;;5092122;28;20467;-71
2021/11/16 02:35:57;;;;;;;1.77;1.57;;;8.20;98.00;;;;;;5091859;28;20467;-71
2021/11/16 02:38:25;;;;;;;1.87;1.37;;;8.10;98.00;;;;;;5090814;28;20490;-71
2021/11/16 02:40:56;;;;;;;2.67;1.47;;;8.10;98.00;;;;;;5092089;28;20455;-71
2021/11/16 02:43:24;;;;;;;2.30;1.43;;;8.20;98.00;;;;;;5092132;28;20485;-71
2021/11/16 02:46:02;;;;;;;1.63;1.53;;;8.10;98.00;;;;;;5091933;28;20512;-71
2021/11/16 02:48:29;;;;;;;3.00;1.47;;;8.10;98.00;;;;;;5092125;28;20453;-71
2021/11/16 02:50:58;;;;;;;1.70;1.47;;;8.20;98.00;;;;;;5091631;28;20464;-71
2021/11/16 02:53:27;;;;;;;1.20;1.20;;;8.30;98.00;;;;;;5091952;28;20456;-71
2021/11/16 02:55:54;;;;;;;3.83;1.27;;;8.30;98.00;;;;;;5091414;28;20465;-71
2021/11/16 02:58:23;;;;;;;2.83;1.63;;;8.40;98.00;;;;;;5090300;28;20537;-71
2021/11/16 03:00:53;;;;;;;1.20;1.00;;;8.50;98.00;;;;;;5090315;28;20460;-71
2021/11/16 03:03:22;;;;;;;1.83;1.47;;;8.50;98.00;;;;;;5091513;28;20466;-71
2021/11/16 03:05:50;;;;;;;2.80;1.73;;;8.40;98.00;;;;;;5091601;28;20465;-71
2021/11/16 03:08:23;;;;;;;1.50;1.10;;;8.40;98.00;;;;;;5091593;28;20448;-71
2021/11/16 03:10:54;;;;;;;1.47;1.37;;;8.20;98.00;;;;;;5091373;28;20464;-71
2021/11/16 03:13:23;;;;;;;2.37;1.73;;;8.10;98.00;;;;;;5091517;28;20460;-71
2021/11/16 03:15:50;;;;;;;1.30;1.30;;;8.20;98.00;;;;;;5091260;28;20467;-71
2021/11/16 03:18:17;;;;;;;1.60;1.23;;;8.20;98.00;;;;;;5091291;28;20482;-71
2021/11/16 03:20:46;;;;;;;1.20;1.00;;;8.10;98.00;;;;;;5093732;28;20458;-71
2021/11/16 03:23:15;;;;;;;1.90;1.30;;;8.00;98.00;;;;;;5095225;28;20459;-71
2021/11/16 03:25:47;;;;;;;1.80;1.70;;;8.00;98.00;;;;;;5095188;28;20536;-71
2021/11/16 03:28:16;;;;;;;3.30;1.87;;;8.10;98.00;;;;;;5095210;28;20956;-71
2021/11/16 03:30:44;;;;;;;2.30;1.63;;;8.10;98.00;;;;;;5095006;28;20451;-71
2021/11/16 03:33:11;;;;;;;2.10;1.33;;;8.10;98.00;;;;;;5095288;28;20456;-71
2021/11/16 03:35:41;;;;;;;1.30;1.20;;;8.20;98.00;;;;;;5095281;28;20460;-71
2021/11/16 03:38:09;;;;;;;1.50;1.47;;;8.30;98.00;;;;;;5094977;28;20569;-71
2021/11/16 03:40:39;;;;;;;1.97;1.83;;;8.20;98.00;;;;;;5095184;28;20546;-71
2021/11/16 03:43:09;;;;;;;2.13;1.73;;;8.20;98.00;;;;;;5095139;28;20456;-71
2021/11/16 03:45:39;;;;;;;1.50;1.40;;;8.20;98.00;;;;;;5095342;28;20458;-72
2021/11/16 03:48:08;;;;;;;1.20;1.17;;;8.10;98.00;;;;;;5095208;28;20513;-71
2021/11/16 03:50:35;;;;;;;1.70;1.60;;;8.10;98.00;;;;;;5095214;28;20514;-71
2021/11/16 03:53:04;;;;;;;1.57;1.40;;;8.10;98.00;;;;;;5095057;28;20452;-71
2021/11/16 03:55:33;;;;;;;2.20;1.80;;;8.10;98.00;;;;;;5095020;28;20512;-71
2021/11/16 03:58:01;;;;;;;2.00;1.70;;;8.10;98.00;;;;;;5094949;28;20542;-71
2021/11/16 04:00:34;;;;;;;1.87;1.63;;;8.10;98.00;;;;;;5094928;28;20476;-72
2021/11/16 04:03:06;;;;;;;1.50;1.10;;;8.00;98.00;;;;;;5094992;28;20999;-71
2021/11/16 04:05:33;;;;;;;2.17;1.40;;;8.00;98.00;;;;;;5094589;28;20899;-71
2021/11/16 04:08:02;;;;;;;1.50;1.40;;;8.00;98.00;;;;;;5094804;28;20458;-71
2021/11/16 04:10:29;;;;;;;2.43;2.03;;;8.00;98.00;;;;;;5093073;28;20486;-71
2021/11/16 04:12:56;;;;;;;1.20;1.20;;;7.90;98.00;;;;;;5094462;28;20519;-71
2021/11/16 04:15:25;;;;;;;2.37;1.50;;;7.90;98.00;;;;;;5093346;28;20516;-71
2021/11/16 04:17:54;;;;;;;1.43;1.10;;;7.80;98.00;;;;;;5094244;28;20597;-71
2021/11/16 04:20:25;;;;;;;1.33;1.20;;;7.80;98.00;;;;;;5094232;28;20452;-71
2021/11/16 04:22:53;;;;;;;1.83;1.30;;;7.80;98.00;;;;;;5076547;28;20452;-71
2021/11/16 04:25:20;;;;;;;2.13;1.20;;;7.80;98.00;;;;;;5094084;28;20995;-71
2021/11/16 04:27:48;;;;;;;1.30;1.10;;;7.80;98.00;;;;;;5094127;28;20832;-72
2021/11/16 04:30:17;;;;;;;1.20;1.10;;;7.80;98.00;;;;;;5093956;28;20516;-71
2021/11/16 04:32:44;;;;;;;1.77;1.30;;;7.90;98.00;;;;;;5091818;28;20454;-71
2021/11/16 04:35:15;;;;;;;1.20;1.10;;;7.90;98.00;;;;;;5094130;28;20953;-71
2021/11/16 04:37:45;;;;;;;1.20;1.00;;;8.00;98.00;;;;;;5093961;28;20482;-71
2021/11/16 04:40:15;;;;;;;1.50;1.23;;;7.90;98.00;;;;;;5093904;28;20510;-71
2021/11/16 04:42:43;;;;;;;1.30;1.20;;;7.80;98.00;;;;;;5093960;28;20468;-71
2021/11/16 04:45:15;;;;;;;1.83;1.53;;;7.80;98.00;;;;;;5093738;28;20463;-71
2021/11/16 04:47:48;;;;;;;1.60;1.40;;;7.80;98.00;;;;;;5094069;28;20545;-71
2021/11/16 04:50:24;;;;;;;1.20;1.00;;;7.70;98.00;;;;;;5093693;28;20481;-71
2021/11/16 04:53:01;;;;;;;2.03;1.33;;;7.80;98.00;;;;;;5093952;28;20547;-71
2021/11/16 04:55:44;;;;;;;1.20;1.20;;;7.80;98.00;;;;;;5092637;28;20455;-71
2021/11/16 05:03:42;;;;;;;1.40;1.20;;;7.90;98.00;;;;;;5093897;28;20947;-71
2021/11/16 05:06:10;;;;;;;1.23;1.03;;;8.00;98.00;;;;;;5092289;28;20554;-71
2021/11/16 05:08:43;;;;;;;2.23;2.03;;;8.00;98.00;;;;;;5093605;28;20456;-71
2021/11/16 05:11:10;;;;;;;1.77;1.40;;;8.00;98.00;;;;;;5093399;28;20562;-71
2021/11/16 05:13:39;;;;;;;1.30;1.27;;;7.90;98.00;;;;;;5093442;28;20943;-71
2021/11/16 05:16:07;;;;;;;1.60;1.27;;;7.80;98.00;;;;;;5093315;28;20456;-71
2021/11/16 05:18:34;;;;;;;2.30;1.47;;;7.80;98.00;;;;;;5093395;28;20478;-71
2021/11/16 05:21:01;;;;;;;2.03;1.30;;;8.00;98.00;;;;;;5091853;28;20458;-71
2021/11/16 05:23:35;;;;;;;1.83;1.30;;;8.10;98.00;;;;;;5092105;28;20499;-71
2021/11/16 05:26:04;;;;;;;1.67;1.10;;;8.10;98.00;;;;;;5092843;28;20533;-71
2021/11/16 05:28:32;;;;;;;1.63;1.10;;;8.00;98.00;;;;;;5093209;28;20452;-71
2021/11/16 05:30:59;;;;;;;2.33;2.00;;;8.10;98.00;;;;;;5092196;28;21176;-71
2021/11/16 05:33:27;;;;;;;1.20;1.00;;;8.00;98.00;;;;;;5092742;28;20526;-71
2021/11/16 05:35:58;;;;;;;1.70;1.23;;;8.10;98.00;;;;;;5092678;28;20449;-71
2021/11/16 05:38:27;;;;;;;3.30;2.40;;;8.00;98.00;;;;;;5092810;28;20509;-71
2021/11/16 05:40:55;;;;;;;1.77;1.47;;;8.10;98.00;;;;;;5092556;28;20547;-71
2021/11/16 05:43:23;;;;;;;3.10;1.47;;;8.20;98.00;;;;;;5092609;28;20463;-71
2021/11/16 05:45:51;;;;;;;1.20;1.10;;;8.20;98.00;;;;;;5092545;28;20493;-71
2021/11/16 05:48:21;;;;;;;2.70;1.20;;;8.30;98.00;;;;;;5092208;28;21019;-71
2021/11/16 05:50:48;;;;;;;1.50;1.33;;;8.30;98.00;;;;;;5092556;28;20463;-71
2021/11/16 05:53:16;;;;;;;1.90;1.30;;;8.10;98.00;;;;;;5092448;28;20457;-71
2021/11/16 05:55:44;;;;;;;1.30;1.30;;;8.00;98.00;;;;;;5091631;28;20460;-71
2021/11/16 05:58:14;;;;;;;1.20;1.00;;;8.00;98.00;;;;;;5090510;28;20559;-71
2021/11/16 06:00:43;;;;;;;1.60;1.30;;;7.90;98.00;;;;;;5091900;28;20544;-71
2021/11/16 06:03:12;;;;;;;1.77;1.33;;;7.70;98.00;;;;;;5092488;28;20450;-71
2021/11/16 06:05:39;;;;;;;1.20;1.20;;;7.60;98.00;;;;;;5092415;28;20535;-71
2021/11/16 06:08:07;;;;;;;1.33;1.27;;;7.60;98.00;;;;;;5092419;28;20489;-71
2021/11/16 06:10:34;;;;;;;3.13;1.80;;;7.70;98.00;;;;;;5092363;28;20945;-71
2021/11/16 06:13:02;;;;;;;1.20;1.03;;;7.60;98.00;;;;;;5092288;28;20469;-71
2021/11/16 06:15:30;;;;;;;1.20;1.10;;;7.60;98.00;;;;;;5091988;28;20451;-71
2021/11/16 06:17:59;;;;;;;1.50;1.37;;;7.50;98.00;;;;;;5092313;28;20893;-71
2021/11/16 06:20:30;;;;;;;5.10;1.73;;;7.40;98.00;;;;;;5092028;28;20519;-71
2021/11/16 06:22:57;;;;;;;1.80;1.40;;;7.50;98.00;;;;;;5092278;28;20837;-71
2021/11/16 06:25:24;;;;;;;1.20;1.10;;;7.40;98.00;;;;;;5091494;28;20457;-71
2021/11/16 06:27:54;;;;;;;1.30;1.20;;;7.30;98.00;;;;;;5092154;28;20455;-71
2021/11/16 06:30:21;;;;;;;1.40;1.10;;;7.30;98.00;;;;;;5092014;28;20587;-71
2021/11/16 06:32:48;;;;;;;1.87;1.83;;;7.50;98.00;;;;;;5092238;28;20457;-71
2021/11/16 06:35:20;;;;;;;1.93;1.23;;;7.40;98.00;;;;;;5092135;28;20512;-71
2021/11/16 06:37:49;;;;;;;1.20;1.00;;;7.20;98.00;;;;;;5091866;28;20490;-71
2021/11/16 06:40:17;;;;;;;1.40;1.30;;;7.40;98.00;;;;;;5091706;28;20456;-71
2021/11/16 06:42:44;;;;;;;1.50;1.40;;;7.30;98.00;;;;;;5091832;28;20503;-71
2021/11/16 06:45:12;;;;;;;2.07;1.30;;;7.20;98.00;;;;;;5091789;28;20485;-71
2021/11/16 06:47:39;;;;;;;1.50;1.30;;;7.20;98.00;;;;;;5091746;28;20453;-71
2021/11/16 06:50:07;;;;;;;1.70;1.07;;;7.20;98.00;;;;;;5091456;28;20460;-71
2021/11/16 06:52:37;;;;;;;1.20;1.07;;;7.20;98.00;;;;;;5091765;28;20481;-71
2021/11/16 06:55:05;;;;;;;1.50;1.43;;;7.20;98.00;;;;;;5092957;28;20460;-71
2021/11/16 06:57:33;;;;;;;8.80;1.67;;;7.20;98.00;;;;;;5077914;28;20458;-71
2021/11/16 07:00:00;;;;;;;4.07;1.60;;;7.10;98.00;;;;;;5095971;28;20461;-71
2021/11/16 07:02:28;;;;;;;1.20;1.10;;;7.20;98.00;;;;;;5095866;28;20916;-71
2021/11/16 07:04:55;;;;;;;1.20;1.00;;;7.10;98.00;;;;;;5095624;28;20453;-71
2021/11/16 07:07:22;;;;;;;1.30;1.13;;;7.10;98.00;;;;;;5095968;28;20583;-71
2021/11/16 07:09:51;;;;;;;1.20;1.13;;;7.10;98.00;;;;;;5094286;28;20499;-71
2021/11/16 07:12:24;;;;;;;1.40;1.20;;;7.30;98.00;;;;;;5095713;28;20453;-71
2021/11/16 07:14:52;;;;;;;1.60;1.40;;;7.40;98.00;;;;;;5095129;28;20496;-71
2021/11/16 07:17:21;;;;;;;1.30;1.17;;;7.30;98.00;;;;;;5095736;28;20453;-71
2021/11/16 07:19:53;;;;;;;1.50;1.30;;;7.20;98.00;;;;;;5095524;28;20530;-71
2021/11/16 07:22:21;;;;;;;1.87;1.20;;;7.30;98.00;;;;;;5095483;28;20493;-71
2021/11/16 07:24:52;;;;;;;1.30;1.30;;;7.40;98.00;;;;;;5095423;28;20881;-71
2021/11/16 07:27:21;;;;;;;1.97;1.57;;;7.20;98.00;;;;;;5095473;28;20519;-71
2021/11/16 07:29:52;;;;;;;1.23;1.00;;;7.20;98.00;;;;;;5095287;28;20465;-71
2021/11/16 07:32:23;;;;;;;1.30;1.13;;;7.10;98.00;;;;;;5095322;28;20547;-71
2021/11/16 07:34:51;;;;;;;2.70;1.30;;;7.30;98.00;;;;;;5095380;28;20801;-71
2021/11/16 07:37:21;;;;;;;1.27;1.20;;;7.40;98.00;;;;;;5095166;28;20485;-72
2021/11/16 07:39:53;;;;;;;2.70;1.43;;;7.50;98.00;;;;;;5095102;28;20481;-71
2021/11/16 07:42:22;;;;;;;1.50;1.27;;;7.40;98.00;;;;;;5095258;28;20462;-72
2021/11/16 07:45:10;;;;;;;2.47;1.20;;;7.40;98.00;;;;;;5095139;28;20456;-71
2021/11/16 07:47:41;;;;;;;2.70;2.13;;;7.30;98.00;;;;;;5095264;28;20515;-72
2021/11/16 07:50:11;;;;;;;5.13;1.30;;;7.50;98.00;;;;;;5095171;28;20917;-72
2021/11/16 07:52:39;;;;;;;1.60;1.40;;;7.60;98.00;;;;;;5095185;28;20815;-71
2021/11/16 07:55:08;;;;;;;1.60;1.43;;;7.60;98.00;;;;;;5094741;28;20458;-72
2021/11/16 07:57:43;;;;;;;1.70;1.57;;;7.60;98.00;;;;;;5094807;28;20514;-72
2021/11/16 08:00:17;;;;;;;1.20;1.00;;;7.50;98.00;;;;;;5094774;28;20483;-72
2021/11/16 08:02:47;;;;;;;1.83;1.60;;;7.40;98.00;;;;;;5094528;28;20513;-73
2021/11/16 08:05:25;;;;;;;2.63;1.27;;;7.30;98.00;;;;;;5094597;28;20853;-72
2021/11/16 08:08:18;;;;;;;1.43;1.33;;;7.30;98.00;;;;;;5094651;28;20463;-72
2021/11/16 08:10:50;;;;;;;1.40;1.20;;;7.40;98.00;;;;;;5094490;28;20461;-72
2021/11/16 08:13:26;;;;;;;1.70;1.47;;;7.40;98.00;;;;;;5094357;28;20942;-72
2021/11/16 08:15:56;;;;;;;1.20;1.20;;;7.30;98.00;;;;;;5094235;28;21105;-72
2021/11/16 08:18:24;;;;;;;2.60;1.40;;;7.30;98.00;;;;;;5094458;28;20478;-72
2021/11/16 08:21:01;;;;;;;1.60;1.37;;;7.40;98.00;;;;;;5094289;28;20469;-72
2021/11/16 08:23:28;;;;;;;1.20;1.13;;;7.40;98.00;;;;;;5094577;28;20480;-72
2021/11/16 08:25:58;;;;;;;2.40;1.10;;;7.50;98.00;;;;;;5094196;28;20457;-72
2021/11/16 08:28:26;;;;;;;1.20;1.13;;;7.60;98.00;;;;;;5093215;28;20463;-77
2021/11/16 08:30:54;;;;;;;1.90;1.20;;;7.70;98.00;;;;;;5101704;28;20458;-72
2021/11/16 08:33:21;;;;;;;1.20;1.10;;;7.80;98.00;;;;;;5097442;28;20486;-72
2021/11/16 08:35:51;;;;;;;2.40;1.50;;;7.90;98.00;;;;;;5105555;28;20503;-69
2021/11/16 08:38:19;;;;;;;1.40;1.40;;;7.80;98.00;;;;;;5105428;28;20560;-72
2021/11/16 08:40:46;;;;;;;1.70;1.60;;;7.90;98.00;;;;;;5105381;28;20508;-73
2021/11/16 08:43:17;;;;;;;2.23;1.40;;;8.00;98.00;;;;;;5097050;28;20536;-72
2021/11/16 08:45:48;;;;;;;1.57;1.30;;;7.90;98.00;;;;;;5097156;28;20931;-72
2021/11/16 08:48:18;;;;;;;1.73;1.50;;;7.80;98.00;;;;;;5100153;28;20560;-72
2021/11/16 08:50:49;;;;;;;1.83;1.37;;;7.90;98.00;;;;;;5094425;28;20541;-72
2021/11/16 08:53:24;;;;;;;1.60;1.53;;;7.70;98.00;;;;;;5093025;28;20550;-72
2021/11/16 08:55:52;;;;;;;1.30;1.27;;;7.80;98.00;;;;;;5107910;28;20455;-72
2021/11/16 08:58:21;;;;;;;1.87;1.57;;;7.90;98.00;;;;;;5109792;28;20549;-72
2021/11/16 09:00:51;;;;;;;1.67;1.43;;;8.00;98.00;;;;;;5109438;28;20983;-72
2021/11/16 09:03:25;;;;;;;1.50;1.10;;;8.10;98.00;;;;;;5101501;27;20465;-71
2021/11/16 09:05:52;;;;;;;1.60;1.27;;;8.00;98.00;;;;;;5108546;28;20447;-72
2021/11/16 09:08:23;;;;;;;1.83;1.83;;;8.00;98.00;;;;;;5109192;28;20453;-72
2021/11/16 09:10:53;;;;;;;1.40;1.33;;;7.90;98.00;;;;;;5100203;28;20487;-72
2021/11/16 09:13:24;;;;;;;1.50;1.30;;;7.90;98.00;;;;;;5100538;28;20532;-72
2021/11/16 09:15:53;;;;;;;1.20;1.03;;;7.90;98.00;;;;;;5092083;28;20460;-73
2021/11/16 09:18:26;;;;;;;1.60;1.47;;;7.90;98.00;;;;;;5100605;28;20452;-72
2021/11/16 09:21:00;;;;;;;1.30;1.20;;;8.00;98.00;;;;;;5109559;28;20518;-73
2021/11/16 09:23:31;;;;;;;1.57;1.10;;;7.80;98.00;;;;;;5092519;28;20508;-73
2021/11/16 09:26:14;;;;;;;3.00;1.53;;;7.80;98.00;;;;;;5106232;28;20540;-73
2021/11/16 09:28:49;;;;;;;1.60;1.10;;;7.90;98.00;;;;;;5098372;28;20564;-72
2021/11/16 09:31:26;;;;;;;1.73;1.30;;;7.80;98.00;;;;;;5091117;28;20463;-71
2021/11/16 09:33:56;;;;;;;1.30;1.17;;;7.70;98.00;;;;;;5091642;28;20502;-71
2021/11/16 09:36:25;;;;;;;1.20;1.00;;;7.60;98.00;;;;;;5092360;28;20448;-71
2021/11/16 09:38:57;;;;;;;1.30;1.17;;;7.60;98.00;;;;;;5092647;28;20530;-71
2021/11/16 09:41:37;;;;;;;1.30;1.20;;;7.80;98.00;;;;;;5092826;28;20459;-71
2021/11/16 09:44:09;;;;;;;1.40;1.30;;;7.90;98.00;;;;;;5092701;28;21012;-71
2021/11/16 09:46:46;;;;;;;1.20;1.20;;;8.10;98.00;;;;;;5092431;28;20508;-71
2021/11/16 09:49:16;;;;;;;1.57;1.43;;;8.10;98.00;;;;;;5091427;28;20511;-71
2021/11/16 09:51:54;;;;;;;1.20;1.10;;;8.10;98.00;;;;;;5092498;28;20459;-71
2021/11/16 09:54:21;;;;;;;4.60;1.30;;;8.20;98.00;;;;;;5091385;28;20455;-71
2021/11/16 09:56:48;;;;;;;1.30;1.13;;;8.30;98.00;;;;;;5092505;28;20547;-71
2021/11/16 09:59:25;;;;;;;2.50;1.00;;;8.30;98.00;;;;;;5092499;28;20537;-71
2021/11/16 10:01:53;;;;;;;1.60;1.27;;;8.20;98.00;;;;;;5092514;28;20473;-71
2021/11/16 10:04:27;;;;;;;2.27;1.60;;;8.10;98.00;;;;;;5092490;28;20929;-71
2021/11/16 10:06:54;;;;;;;1.20;1.00;;;8.10;98.00;;;;;;5092520;28;20465;-71
2021/11/16 10:09:21;;;;;;;4.53;1.67;;;8.00;98.00;;;;;;5092412;28;20515;-71
2021/11/16 10:11:52;;;;;;;2.27;1.50;;;8.10;98.00;;;;;;5090881;28;20496;-71
2021/11/16 10:14:23;;;;;;;1.97;1.47;;;8.20;98.00;;;;;;5092383;28;20459;-71
2021/11/16 10:16:52;;;;;;;1.53;1.23;;;8.20;98.00;;;;;;5092140;28;20459;-71
2021/11/16 10:19:22;;;;;;;1.33;1.30;;;8.20;98.00;;;;;;5092259;28;20492;-71
2021/11/16 10:21:49;;;;;;;2.57;1.50;;;8.30;98.00;;;;;;5092207;28;20505;-71
2021/11/16 10:24:31;;;;;;;1.20;1.00;;;8.30;98.00;;;;;;5091926;28;20515;-71
2021/11/16 10:27:00;;;;;;;1.50;1.23;;;8.30;98.00;;;;;;5092107;28;20455;-71
2021/11/16 10:29:27;;;;;;;1.93;1.37;;;8.30;98.00;;;;;;5091151;28;20460;-70
2021/11/16 10:31:58;;;;;;;1.80;1.30;;;8.10;98.00;;;;;;5091711;28;20489;-71
2021/11/16 10:34:43;;;;;;;1.57;1.10;;;8.10;98.00;;;;;;5091942;28;20529;-71
2021/11/16 10:37:11;;;;;;;1.50;1.40;;;8.10;98.00;;;;;;5091871;28;20450;-71
2021/11/16 10:39:39;;;;;;;1.20;1.10;;;8.10;98.00;;;;;;5091959;28;20581;-71
2021/11/16 10:42:15;;;;;;;1.20;1.07;;;8.00;98.00;;;;;;5092130;28;20516;-71
2021/11/16 10:44:56;;;;;;;1.87;1.77;;;8.00;98.00;;;;;;5091621;28;20462;-71
2021/11/16 10:47:35;;;;;;;1.60;1.20;;;7.90;98.00;;;;;;5091870;28;20459;-71
2021/11/16 10:50:08;;;;;;;2.83;1.93;;;7.90;98.00;;;;;;5091770;28;20453;-71
2021/11/16 10:52:36;;;;;;;2.67;1.40;;;8.00;98.00;;;;;;5091654;28;20496;-71
2021/11/16 10:55:05;;;;;;;1.20;1.00;;;7.90;98.00;;;;;;5091683;28;20504;-71
2021/11/16 10:57:56;;;;;;;1.30;1.20;;;7.90;98.00;;;;;;5091698;28;20449;-70
2021/11/16 11:00:31;;;;;;;1.30;1.20;;;8.00;98.00;;;;;;5091175;28;20509;-70
2021/11/16 11:03:18;;;;;;;1.20;1.00;;;8.10;98.00;;;;;;5091742;28;20964;-70
2021/11/16 11:05:47;;;;;;;1.60;1.50;;;8.20;98.00;;;;;;5091479;28;20520;-72
2021/11/16 11:08:32;;;;;;;1.20;1.20;;;8.30;98.00;;;;;;5091769;28;20865;-72
2021/11/16 11:11:02;;;;;;;1.47;1.20;;;8.30;98.00;;;;;;5091545;28;20535;-71
2021/11/16 11:13:30;;;;;;;1.40;1.30;;;8.30;98.00;;;;;;5091675;28;20890;-71
2021/11/16 11:15:58;;;;;;;1.20;1.00;;;8.30;98.00;;;;;;5111947;28;20451;-71
2021/11/16 11:18:40;;;;;;;1.20;1.10;;;8.30;98.00;;;;;;5112131;28;21161;-71
2021/11/16 11:21:09;;;;;;;1.20;1.10;;;8.20;98.00;;;;;;5111803;28;21160;-71
2021/11/16 11:23:42;;;;;;;1.20;1.10;;;8.20;98.00;;;;;;5112076;28;20447;-71
2021/11/16 11:26:34;;;;;;;1.70;1.20;;;8.10;98.00;;;;;;5111839;28;20455;-72
2021/11/16 11:31:51;;;;;;;1.20;1.00;;;7.90;98.00;;;;;;5111247;28;20849;-70
2021/11/16 11:34:19;;;;;;;1.20;1.00;;;7.90;98.00;;;;;;5111373;28;20557;-70
2021/11/16 11:36:47;;;;;;;1.27;1.13;;;7.90;98.00;;;;;;5110752;28;20460;-71
2021/11/16 11:39:20;;;;;;;1.40;1.30;;;7.90;98.00;;;;;;5111385;28;20564;-71
2021/11/16 11:41:49;;;;;;;1.50;1.27;;;8.00;98.00;;;;;;5114025;28;20462;-71
2021/11/16 11:44:18;;;;;;;3.30;1.57;;;8.00;98.00;;;;;;5114171;28;20463;-71
2021/11/16 11:46:51;;;;;;;1.40;1.20;;;8.00;98.00;;;;;;5115236;28;20535;-71
2021/11/16 11:49:20;;;;;;;1.20;1.10;;;8.00;98.00;;;;;;5115514;28;20534;-71
2021/11/16 11:51:54;;;;;;;1.20;1.10;;;8.00;98.00;;;;;;5115039;28;20511;-71
2021/11/16 11:54:21;;;;;;;1.30;1.27;;;8.10;98.00;;;;;;5115108;28;20534;-71
2021/11/16 11:56:50;;;;;;;1.30;1.30;;;8.00;98.00;;;;;;5114934;28;20956;-71
2021/11/16 11:59:19;;;;;;;1.30;1.10;;;8.00;98.00;;;;;;5115122;28;20531;-71
2021/11/16 12:01:47;;;;;;;2.00;1.93;;;8.00;98.00;;;;;;5114967;28;20515;-71
2021/11/16 12:04:17;;;;;;;1.20;1.10;;;8.10;98.00;;;;;;5115098;28;20454;-71
2021/11/16 12:06:47;;;;;;;1.20;1.00;;;8.10;98.00;;;;;;5114839;28;20465;-71
2021/11/16 12:09:15;;;;;;;1.40;1.10;;;8.10;98.00;;;;;;5115000;28;20509;-71
2021/11/16 12:11:42;;;;;;;2.83;2.27;;;8.20;98.00;;;;;;5114900;28;20512;-71
2021/11/16 12:14:28;;;;;;;1.27;1.20;;;8.20;98.00;;;;;;5112231;28;20464;-71
2021/11/16 12:17:01;;;;;;;1.40;1.20;;;8.30;98.00;;;;;;5114749;28;20459;-71
2021/11/16 12:19:40;;;;;;;2.80;1.30;;;8.30;98.00;;;;;;5114830;28;20486;-71
2021/11/16 12:22:24;;;;;;;24.43;1.57;;;8.30;98.00;;;;;;5114838;28;20554;-71
2021/11/16 12:24:54;;;;;;;1.20;1.00;;;8.30;98.00;;;;;;5114724;28;20457;-71
2021/11/16 12:27:23;;;;;;;1.20;1.00;;;8.20;98.00;;;;;;5113602;28;20458;-70
2021/11/16 12:29:51;;;;;;;2.70;1.00;;;8.30;98.00;;;;;;5114816;28;20955;-71
2021/11/16 12:32:23;;;;;;;1.77;1.20;;;8.20;98.00;;;;;;5114915;28;20487;-70
2021/11/16 12:34:55;;;;;;;1.30;1.23;;;8.20;98.00;;;;;;5114598;28;20795;-70
2021/11/16 12:37:43;;;;;;;1.20;1.00;;;8.20;98.00;;;;;;5114704;28;20939;-71
2021/11/16 12:40:18;;;;;;;1.57;1.13;;;8.30;98.00;;;;;;5114415;28;20487;-71
2021/11/16 12:43:18;;;;;;;1.20;0.97;;;8.30;98.00;;;;;;5114674;27;20456;-71
2021/11/16 12:45:47;;;;;;;1.20;1.00;;;8.50;98.00;;;;;;5051529;28;21207;-71
2021/11/16 12:48:16;;;;;;;1.20;1.10;;;8.40;98.00;;;;;;5101672;28;20790;-71
2021/11/16 12:51:06;;;;;;;2.30;1.33;;;8.30;98.00;;;;;;5114215;28;20508;-72
2021/11/16 12:54:01;;;;;;;1.20;1.03;;;8.10;98.00;;;;;;5113246;28;20470;-71
2021/11/16 12:57:20;;;;;;;1.20;1.00;;;8.10;98.00;;;;;;5114041;28;20465;-71
2021/11/16 12:59:54;;;;;;;1.20;1.10;;;8.00;98.00;;;;;;5113732;28;20480;-71
2021/11/16 13:02:23;;;;;;;1.63;1.23;;;7.80;98.00;;;;;;5113777;28;20458;-71
2021/11/16 13:04:54;;;;;;;1.50;1.30;;;7.70;98.00;;;;;;5113915;28;20449;-71
2021/11/16 13:07:24;;;;;;;1.20;1.00;;;7.60;98.00;;;;;;5114104;28;20488;-71
2021/11/16 13:09:55;;;;;;;1.37;1.10;;;7.60;98.00;;;;;;5113763;28;20451;-71
2021/11/16 13:12:51;;;;;;;2.53;1.33;;;7.60;98.00;;;;;;5113723;28;20515;-71
2021/11/16 13:15:42;;;;;;;1.20;1.00;;;7.60;98.00;;;;;;5094173;28;20968;-71
2021/11/16 13:18:11;;;;;;;1.40;1.10;;;7.60;98.00;;;;;;5093205;28;20939;-71
2021/11/16 13:20:42;;;;;;;2.37;1.23;;;7.60;98.00;;;;;;5091803;28;20482;-71
2021/11/16 13:23:18;;;;;;;1.47;1.10;;;7.60;98.00;;;;;;5093249;28;20447;-71